createdAt,value
2022-11-26T00:01:31.029Z,50.56
2022-11-26T00:04:33.982Z,50.57
2022-11-26T00:07:37.102Z,50.63
2022-11-26T00:10:40.113Z,50.70
2022-11-26T00:13:43.052Z,50.70
2022-11-26T00:16:47.448Z,50.68
2022-11-26T00:19:50.526Z,50.69
2022-11-26T00:22:55.311Z,50.81
2022-11-26T00:26:01.297Z,50.80
2022-11-26T00:29:04.386Z,50.81
2022-11-26T00:32:16.124Z,50.79
2022-11-26T00:35:19.770Z,50.86
2022-11-26T00:38:23.647Z,50.79
2022-11-26T00:41:31.948Z,50.88
2022-11-26T00:44:35.047Z,50.94
2022-11-26T00:47:39.619Z,50.83
2022-11-26T00:50:46.291Z,50.87
2022-11-26T00:53:50.273Z,51.01
2022-11-26T00:56:53.467Z,50.87
2022-11-26T00:59:56.399Z,50.93
2022-11-26T01:03:01.320Z,50.97
2022-11-26T01:06:04.338Z,50.96
2022-11-26T01:09:08.106Z,51.02
2022-11-26T01:12:15.011Z,50.90
2022-11-26T01:15:19.542Z,50.99
2022-11-26T01:18:25.094Z,50.91
2022-11-26T01:21:30.482Z,50.95
2022-11-26T01:24:33.486Z,51.01
2022-11-26T01:27:36.475Z,50.94
2022-11-26T01:30:40.554Z,51.02
2022-11-26T01:33:45.577Z,51.02
2022-11-26T01:36:48.604Z,51.02
2022-11-26T01:39:51.546Z,50.95
2022-11-26T01:43:00.146Z,51.00
2022-11-26T01:46:03.168Z,50.98
2022-11-26T01:49:20.015Z,51.04
2022-11-26T01:52:25.943Z,50.98
2022-11-26T01:55:37.105Z,51.09
2022-11-26T01:58:43.518Z,50.99
2022-11-26T02:01:46.829Z,51.02
2022-11-26T02:04:59.535Z,50.98
2022-11-26T02:08:03.986Z,50.94
2022-11-26T02:11:17.842Z,51.01
2022-11-26T02:14:23.739Z,50.94
2022-11-26T02:17:36.235Z,50.92
2022-11-26T02:20:50.735Z,51.02
2022-11-26T02:24:11.833Z,50.89
2022-11-26T02:27:56.078Z,50.88
2022-11-26T02:31:06.402Z,50.93
2022-11-26T02:34:16.166Z,50.90
2022-11-26T02:37:24.302Z,50.88
2022-11-26T02:40:27.615Z,50.92
2022-11-26T02:43:32.330Z,50.92
2022-11-26T02:46:38.730Z,50.91
2022-11-26T02:49:43.991Z,50.83
2022-11-26T02:52:49.648Z,50.84
2022-11-26T02:56:00.767Z,50.97
2022-11-26T02:59:05.659Z,50.94
2022-11-26T03:02:15.974Z,50.87
2022-11-26T03:05:20.689Z,50.92
2022-11-26T03:08:25.171Z,50.88
2022-11-26T03:11:28.761Z,50.79
2022-11-26T03:14:31.707Z,50.85
2022-11-26T03:17:36.046Z,50.95
2022-11-26T03:20:39.044Z,50.81
2022-11-26T03:23:42.169Z,50.83
2022-11-26T03:26:45.140Z,50.82
2022-11-26T03:29:48.205Z,50.83
2022-11-26T03:32:52.643Z,50.74
2022-11-26T03:35:55.562Z,50.83
2022-11-26T03:38:58.523Z,50.73
2022-11-26T03:42:01.565Z,50.78
2022-11-26T03:45:04.994Z,50.67
2022-11-26T03:48:10.298Z,50.53
2022-11-26T03:51:13.262Z,50.55
2022-11-26T03:54:16.473Z,50.52
2022-11-26T03:57:20.245Z,50.11
2022-11-26T04:00:23.631Z,50.01
2022-11-26T04:03:28.084Z,49.95
2022-11-26T04:06:31.178Z,50.14
2022-11-26T04:09:34.286Z,50.10
2022-11-26T04:12:37.590Z,50.15
2022-11-26T04:15:40.550Z,50.06
2022-11-26T04:18:45.005Z,50.23
2022-11-26T04:21:48.064Z,50.24
2022-11-26T04:24:50.991Z,50.21
2022-11-26T04:27:54.055Z,50.30
2022-11-26T04:30:57.074Z,50.15
2022-11-26T04:34:01.448Z,50.27
2022-11-26T04:37:04.410Z,50.28
2022-11-26T04:40:08.649Z,50.30
2022-11-26T04:43:11.638Z,50.33
2022-11-26T04:46:14.641Z,50.42
2022-11-26T04:49:18.957Z,50.41
2022-11-26T04:52:21.943Z,50.43
2022-11-26T04:55:25.409Z,50.56
2022-11-26T04:58:28.652Z,50.43
2022-11-26T05:01:31.695Z,50.53
2022-11-26T05:04:36.329Z,50.54
2022-11-26T05:07:40.174Z,50.54
2022-11-26T05:10:43.295Z,50.59
2022-11-26T05:13:46.271Z,50.56
2022-11-26T05:16:49.268Z,50.51
2022-11-26T05:19:53.710Z,50.62
2022-11-26T05:22:56.720Z,50.47
2022-11-26T05:25:59.651Z,50.51
2022-11-26T05:29:02.625Z,50.55
2022-11-26T05:32:06.380Z,50.56
2022-11-26T05:35:11.395Z,50.67
2022-11-26T05:38:14.398Z,50.51
2022-11-26T05:41:17.405Z,50.62
2022-11-26T05:44:20.375Z,50.55
2022-11-26T05:47:23.563Z,50.63
2022-11-26T05:50:27.894Z,50.52
2022-11-26T05:53:31.555Z,50.56
2022-11-26T05:56:34.595Z,50.47
2022-11-26T05:59:37.731Z,50.49
2022-11-26T06:02:40.760Z,50.42
2022-11-26T06:05:45.302Z,50.34
2022-11-26T06:08:48.278Z,50.42
2022-11-26T06:11:51.647Z,50.50
2022-11-26T06:14:54.606Z,50.44
2022-11-26T06:17:57.638Z,50.51
2022-11-26T06:21:02.736Z,50.41
2022-11-26T06:24:06.539Z,50.46
2022-11-26T06:27:09.587Z,50.42
2022-11-26T06:30:13.680Z,50.49
2022-11-26T06:33:16.746Z,50.50
2022-11-26T06:36:21.202Z,50.56
2022-11-26T06:39:24.173Z,50.41
2022-11-26T06:42:27.282Z,50.50
2022-11-26T06:45:30.575Z,50.49
2022-11-26T06:48:34.307Z,50.52
2022-11-26T06:51:38.730Z,50.56
2022-11-26T06:54:41.791Z,50.52
2022-11-26T06:57:44.761Z,50.55
2022-11-26T07:00:47.687Z,50.61
2022-11-26T07:03:50.989Z,50.56
2022-11-26T07:06:55.378Z,50.52
2022-11-26T07:09:58.307Z,50.56
2022-11-26T07:13:01.449Z,50.46
2022-11-26T07:16:05.842Z,50.56
2022-11-26T07:19:08.794Z,50.55
2022-11-26T07:22:13.227Z,50.48
2022-11-26T07:25:17.161Z,50.67
2022-11-26T07:28:20.139Z,50.57
2022-11-26T07:31:24.270Z,50.69
2022-11-26T07:34:27.339Z,50.58
2022-11-26T07:37:33.257Z,50.62
2022-11-26T07:40:36.436Z,50.60
2022-11-26T07:43:40.924Z,50.58
2022-11-26T07:46:43.850Z,50.61
2022-11-26T07:49:46.792Z,50.64
2022-11-26T07:52:52.936Z,50.49
2022-11-26T07:55:56.120Z,50.69
2022-11-26T07:58:59.091Z,50.54
2022-11-26T08:02:02.182Z,50.70
2022-11-26T08:05:05.778Z,50.58
2022-11-26T08:08:10.909Z,50.68
2022-11-26T08:11:16.423Z,50.63
2022-11-26T08:14:19.373Z,50.54
2022-11-26T08:17:22.548Z,50.61
2022-11-26T08:20:29.029Z,50.51
2022-11-26T08:23:35.814Z,50.49
2022-11-26T08:26:43.910Z,50.42
2022-11-26T08:29:47.658Z,50.26
2022-11-26T08:32:50.685Z,50.27
2022-11-26T08:36:06.585Z,50.25
2022-11-26T08:39:13.874Z,50.14
2022-11-26T08:42:17.089Z,49.97
2022-11-26T08:45:20.178Z,50.14
2022-11-26T08:48:27.884Z,50.09
2022-11-26T08:51:34.619Z,50.16
2022-11-26T08:54:44.607Z,50.07
2022-11-26T08:57:48.769Z,50.10
2022-11-26T09:00:51.786Z,50.30
2022-11-26T09:03:56.478Z,50.23
2022-11-26T09:06:59.414Z,50.32
2022-11-26T09:10:03.766Z,50.31
2022-11-26T09:13:07.091Z,50.43
2022-11-26T09:16:10.224Z,50.42
2022-11-26T09:19:14.970Z,50.34
2022-11-26T09:22:17.923Z,50.47
2022-11-26T09:25:22.330Z,50.43
2022-11-26T09:28:25.501Z,50.40
2022-11-26T09:31:29.128Z,50.50
2022-11-26T09:34:32.453Z,50.56
2022-11-26T09:37:35.400Z,50.40
2022-11-26T09:40:48.244Z,50.47
2022-11-26T09:44:07.060Z,49.77
2022-11-26T09:47:18.032Z,49.49
2022-11-26T09:50:28.015Z,49.30
2022-11-26T09:53:36.545Z,49.36
2022-11-26T09:56:40.918Z,49.50
2022-11-26T09:59:46.570Z,49.57
2022-11-26T10:02:49.547Z,49.58
2022-11-26T10:05:59.227Z,49.56
2022-11-26T10:09:17.331Z,49.59
2022-11-26T10:12:30.975Z,49.61
2022-11-26T10:15:39.758Z,49.43
2022-11-26T10:18:51.172Z,49.57
2022-11-26T10:21:58.968Z,49.50
2022-11-26T10:25:04.172Z,49.59
2022-11-26T10:28:19.978Z,49.62
2022-11-26T10:31:25.727Z,49.57
2022-11-26T10:34:39.324Z,49.70
2022-11-26T10:37:42.932Z,49.80
2022-11-26T10:40:46.081Z,49.98
2022-11-26T10:43:50.537Z,49.82
2022-11-26T10:46:53.653Z,49.92
2022-11-26T10:50:39.474Z,49.90
2022-11-26T10:53:51.803Z,50.00
2022-11-26T10:56:55.406Z,50.23
2022-11-26T11:00:00.294Z,50.35
2022-11-26T11:03:05.857Z,50.20
2022-11-26T11:06:24.926Z,50.36
2022-11-26T11:09:32.321Z,50.35
2022-11-26T11:12:35.714Z,50.44
2022-11-26T11:15:41.595Z,50.41
2022-11-26T11:18:52.945Z,50.53
2022-11-26T11:21:56.011Z,50.61
2022-11-26T11:25:01.152Z,50.58
2022-11-26T11:28:15.172Z,50.66
2022-11-26T11:31:22.285Z,50.65
2022-11-26T11:34:30.658Z,50.76
2022-11-26T11:37:33.763Z,50.73
2022-11-26T11:40:43.009Z,50.96
2022-11-26T11:43:46.184Z,50.90
2022-11-26T11:47:25.330Z,50.98
2022-11-26T11:50:33.823Z,51.05
2022-11-26T11:53:44.542Z,50.92
2022-11-26T11:56:52.593Z,51.02
2022-11-26T12:00:13.249Z,51.00
2022-11-26T12:03:49.784Z,51.09
2022-11-26T12:07:14.229Z,51.12
2022-11-26T12:10:29.726Z,51.13
2022-11-26T12:13:43.009Z,51.22
2022-11-26T12:16:51.302Z,51.27
2022-11-26T12:20:00.887Z,51.49
2022-11-26T12:23:22.619Z,51.42
2022-11-26T12:26:33.472Z,51.65
2022-11-26T12:29:41.415Z,51.70
2022-11-26T12:32:50.645Z,52.05
2022-11-26T12:35:57.655Z,51.92
2022-11-26T12:39:04.370Z,51.92
2022-11-26T12:42:17.262Z,52.00
2022-11-26T12:45:28.748Z,51.96
2022-11-26T12:48:44.530Z,51.83
2022-11-26T12:51:57.262Z,51.85
2022-11-26T12:55:12.396Z,52.16
2022-11-26T12:58:20.438Z,52.18
2022-11-26T13:01:24.578Z,52.21
2022-11-26T13:04:37.654Z,52.20
2022-11-26T13:07:57.636Z,52.28
2022-11-26T13:11:16.240Z,52.27
2022-11-26T13:14:27.133Z,52.27
2022-11-26T13:17:38.805Z,52.36
2022-11-26T13:21:02.350Z,52.38
2022-11-26T13:24:47.943Z,52.27
2022-11-26T13:28:00.032Z,52.24
2022-11-26T13:31:22.215Z,52.24
2022-11-26T13:34:57.800Z,52.15
2022-11-26T13:38:17.441Z,52.22
2022-11-26T13:41:36.429Z,52.13
2022-11-26T13:44:59.655Z,51.97
2022-11-26T13:48:07.642Z,52.11
2022-11-26T13:51:20.585Z,52.08
2022-11-26T13:54:29.506Z,52.15
2022-11-26T13:57:41.246Z,52.08
2022-11-26T14:00:44.649Z,52.09
2022-11-26T14:03:49.494Z,52.07
2022-11-26T14:07:20.924Z,52.21
2022-11-26T14:10:43.361Z,52.33
2022-11-26T14:14:26.089Z,52.17
2022-11-26T14:17:34.967Z,52.10
2022-11-26T14:21:14.375Z,52.08
2022-11-26T14:24:56.498Z,52.06
2022-11-26T14:28:01.830Z,52.04
2022-11-26T14:31:13.337Z,52.16
2022-11-26T14:34:21.127Z,52.04
2022-11-26T14:37:27.238Z,52.17
2022-11-26T14:40:32.901Z,52.03
2022-11-26T14:43:35.922Z,51.97
2022-11-26T14:46:39.897Z,52.12
2022-11-26T14:49:46.077Z,52.08
2022-11-26T14:52:56.462Z,52.08
2022-11-26T14:56:00.090Z,52.14
2022-11-26T14:59:03.513Z,52.00
2022-11-26T15:02:22.207Z,51.95
2022-11-26T15:05:26.738Z,51.97
2022-11-26T15:08:31.125Z,52.02
2022-11-26T15:11:35.447Z,52.09
2022-11-26T15:14:41.679Z,51.94
2022-11-26T15:17:48.174Z,52.02
2022-11-26T15:20:53.722Z,52.04
2022-11-26T15:24:00.501Z,52.22
2022-11-26T15:27:03.494Z,52.02
2022-11-26T15:30:19.473Z,52.17
2022-11-26T15:33:22.764Z,52.16
2022-11-26T15:36:25.738Z,52.04
2022-11-26T15:39:31.905Z,51.99
2022-11-26T15:42:35.417Z,51.99
2022-11-26T15:45:41.676Z,52.04
2022-11-26T15:48:52.934Z,52.07
2022-11-26T15:51:59.880Z,52.06
2022-11-26T15:55:15.463Z,52.04
2022-11-26T15:58:23.321Z,52.01
2022-11-26T16:01:30.152Z,52.06
2022-11-26T16:04:41.357Z,52.10
2022-11-26T16:07:57.831Z,52.11
2022-11-26T16:11:09.826Z,52.13
2022-11-26T16:14:30.750Z,52.04
2022-11-26T16:17:34.072Z,51.93
2022-11-26T16:20:37.110Z,52.00
2022-11-26T16:23:40.102Z,51.93
2022-11-26T16:27:00.843Z,52.04
2022-11-26T16:30:08.539Z,52.00
2022-11-26T16:33:11.883Z,52.06
2022-11-26T16:36:20.417Z,52.13
2022-11-26T16:39:27.409Z,52.14
2022-11-26T16:42:34.455Z,51.97
2022-11-26T16:45:37.426Z,52.04
2022-11-26T16:48:41.630Z,51.99
2022-11-26T16:51:44.618Z,52.11
2022-11-26T16:54:47.994Z,52.00
2022-11-26T16:57:56.846Z,51.97
2022-11-26T17:01:00.314Z,52.02
2022-11-26T17:04:03.309Z,52.09
2022-11-26T17:07:06.381Z,52.06
2022-11-26T17:10:14.685Z,52.09
2022-11-26T17:13:20.590Z,52.09
2022-11-26T17:16:26.175Z,52.09
2022-11-26T17:19:29.311Z,52.08
2022-11-26T17:22:32.234Z,52.01
2022-11-26T17:25:35.148Z,52.04
2022-11-26T17:28:39.564Z,51.99
2022-11-26T17:31:42.558Z,51.98
2022-11-26T17:34:46.081Z,51.47
2022-11-26T17:37:49.090Z,50.54
2022-11-26T17:40:52.089Z,49.34
2022-11-26T17:43:56.481Z,48.93
2022-11-26T17:47:16.308Z,49.07
2022-11-26T17:50:22.985Z,48.86
2022-11-26T17:53:26.051Z,48.88
2022-11-26T17:56:29.208Z,48.84
2022-11-26T17:59:33.786Z,48.98
2022-11-26T18:02:37.001Z,49.08
2022-11-26T18:05:42.263Z,49.19
2022-11-26T18:08:46.107Z,49.19
2022-11-26T18:11:51.521Z,48.97
2022-11-26T18:14:57.135Z,49.02
2022-11-26T18:18:00.703Z,49.04
2022-11-26T18:21:03.674Z,49.05
2022-11-26T18:24:08.212Z,49.12
2022-11-26T18:27:11.151Z,49.29
2022-11-26T18:30:16.509Z,49.42
2022-11-26T18:33:19.517Z,49.54
2022-11-26T18:36:22.526Z,49.65
2022-11-26T18:39:25.650Z,49.64
2022-11-26T18:42:37.424Z,49.70
2022-11-26T18:45:44.120Z,50.02
2022-11-26T18:48:48.913Z,49.94
2022-11-26T18:51:51.899Z,50.11
2022-11-26T18:54:54.955Z,50.32
2022-11-26T18:57:57.978Z,50.42
2022-11-26T19:01:02.486Z,50.52
2022-11-26T19:04:06.407Z,50.54
2022-11-26T19:07:10.282Z,50.68
2022-11-26T19:10:13.557Z,50.67
2022-11-26T19:13:17.342Z,50.93
2022-11-26T19:16:22.813Z,50.88
2022-11-26T19:19:29.652Z,50.86
2022-11-26T19:22:32.701Z,50.89
2022-11-26T19:25:35.743Z,50.87
2022-11-26T19:28:38.802Z,50.87
2022-11-26T19:31:43.213Z,51.06
2022-11-26T19:34:46.194Z,51.09
2022-11-26T19:37:49.242Z,51.26
2022-11-26T19:40:57.074Z,51.29
2022-11-26T19:44:01.442Z,51.49
2022-11-26T19:47:05.902Z,51.33
2022-11-26T19:50:10.485Z,51.51
2022-11-26T19:53:13.574Z,51.32
2022-11-26T19:56:19.243Z,51.46
2022-11-26T19:59:22.441Z,51.43
2022-11-26T20:02:26.882Z,51.48
2022-11-26T20:05:29.929Z,51.54
2022-11-26T20:08:33.303Z,51.53
2022-11-26T20:11:38.478Z,51.48
2022-11-26T20:14:41.555Z,51.42
2022-11-26T20:17:46.009Z,51.37
2022-11-26T20:20:58.900Z,51.43
2022-11-26T20:24:05.694Z,51.49
2022-11-26T20:27:08.705Z,51.54
2022-11-26T20:30:12.606Z,51.60
2022-11-26T20:33:20.074Z,51.47
2022-11-26T20:36:24.096Z,51.50
2022-11-26T20:39:28.712Z,51.64
2022-11-26T20:42:33.377Z,51.47
2022-11-26T20:45:36.560Z,51.64
2022-11-26T20:48:43.186Z,51.35
2022-11-26T20:51:46.105Z,51.43
2022-11-26T20:54:53.445Z,51.37
2022-11-26T20:57:56.873Z,51.34
2022-11-26T21:01:00.198Z,51.42
2022-11-26T21:04:04.688Z,51.50
2022-11-26T21:07:07.762Z,51.58
2022-11-26T21:10:11.775Z,51.65
2022-11-26T21:13:16.581Z,51.69
2022-11-26T21:16:19.773Z,51.93
2022-11-26T21:19:24.645Z,51.91
2022-11-26T21:22:27.686Z,51.89
2022-11-26T21:25:30.642Z,51.84
2022-11-26T21:28:33.613Z,51.93
2022-11-26T21:31:37.204Z,51.93
2022-11-26T21:34:41.743Z,52.11
2022-11-26T21:37:44.749Z,52.07
2022-11-26T21:40:47.893Z,52.13
2022-11-26T21:43:51.647Z,51.93
2022-11-26T21:46:54.690Z,52.24
2022-11-26T21:49:59.091Z,52.12
2022-11-26T21:53:02.181Z,52.28
2022-11-26T21:56:06.741Z,52.63
2022-11-26T21:59:10.844Z,52.81
2022-11-26T22:02:14.464Z,52.77
2022-11-26T22:05:18.905Z,52.70
2022-11-26T22:08:22.282Z,52.53
2022-11-26T22:11:27.569Z,52.71
2022-11-26T22:14:30.654Z,52.66
2022-11-26T22:17:33.690Z,52.60
2022-11-26T22:20:39.695Z,52.61
2022-11-26T22:23:42.677Z,52.47
2022-11-26T22:26:46.155Z,52.70
2022-11-26T22:29:49.162Z,52.82
2022-11-26T22:32:52.194Z,53.03
2022-11-26T22:35:56.616Z,53.28
2022-11-26T22:39:00.474Z,53.30
2022-11-26T22:42:04.013Z,53.23
2022-11-26T22:45:08.125Z,53.25
2022-11-26T22:48:12.398Z,52.94
2022-11-26T22:51:17.038Z,52.97
2022-11-26T22:54:21.377Z,52.96
2022-11-26T22:57:25.666Z,52.75
2022-11-26T23:00:50.294Z,52.63
2022-11-26T23:03:54.577Z,52.50
2022-11-26T23:06:58.958Z,52.22
2022-11-26T23:10:01.995Z,52.00
2022-11-26T23:13:06.698Z,51.93
2022-11-26T23:16:10.588Z,51.62
2022-11-26T23:19:15.774Z,51.73
2022-11-26T23:22:20.181Z,51.49
2022-11-26T23:25:23.117Z,51.78
2022-11-26T23:28:26.127Z,51.73
2022-11-26T23:31:31.352Z,51.77
2022-11-26T23:34:34.422Z,51.75
2022-11-26T23:37:39.318Z,51.84
2022-11-26T23:40:42.310Z,51.73
2022-11-26T23:43:45.850Z,51.98
2022-11-26T23:46:48.842Z,51.73
2022-11-26T23:49:51.922Z,51.77
2022-11-26T23:52:56.223Z,51.79
2022-11-26T23:56:03.661Z,51.80
2022-11-26T23:59:06.999Z,51.87
